createdAt,value
2022-09-04T00:02:10.367Z,10.43
2022-09-04T00:05:04.295Z,10.32
2022-09-04T00:08:01.109Z,9.32
2022-09-04T00:10:43.119Z,9.00
2022-09-04T00:13:28.309Z,8.27
2022-09-04T00:16:05.796Z,7.57
2022-09-04T00:18:45.007Z,8.18
2022-09-04T00:21:21.497Z,7.90
2022-09-04T00:24:01.599Z,7.80
2022-09-04T00:26:56.149Z,8.13
2022-09-04T00:29:50.092Z,8.75
2022-09-04T00:32:41.272Z,8.07
2022-09-04T00:35:15.572Z,8.50
2022-09-04T00:37:51.109Z,8.45
2022-09-04T00:40:36.295Z,8.77
2022-09-04T00:43:19.765Z,8.75
2022-09-04T00:46:06.630Z,8.70
2022-09-04T00:48:52.728Z,8.40
2022-09-04T00:51:44.298Z,9.20
2022-09-04T00:54:54.234Z,8.98
2022-09-04T00:57:49.506Z,7.70
2022-09-04T01:00:22.694Z,7.88
2022-09-04T01:03:10.074Z,7.95
2022-09-04T01:06:05.053Z,7.75
2022-09-04T01:08:43.568Z,7.03
2022-09-04T01:11:13.509Z,9.20
2022-09-04T01:13:44.540Z,8.82
2022-09-04T01:18:58.536Z,8.25
2022-09-04T01:21:44.461Z,7.90
2022-09-04T01:24:49.973Z,9.80
2022-09-04T01:27:29.246Z,8.48
2022-09-04T01:30:03.275Z,8.68
2022-09-04T01:32:52.933Z,8.88
2022-09-04T01:35:46.240Z,8.23
2022-09-04T01:38:35.620Z,7.68
2022-09-04T01:41:08.670Z,8.50
2022-09-04T01:43:38.925Z,8.25
2022-09-04T01:46:15.927Z,6.97
2022-09-04T01:49:06.404Z,6.88
2022-09-04T01:54:26.892Z,7.43
2022-09-04T02:00:00.244Z,6.57
2022-09-04T02:02:57.238Z,7.95
2022-09-04T02:05:32.284Z,8.75
2022-09-04T02:08:18.467Z,8.05
2022-09-04T02:10:48.923Z,6.90
2022-09-04T02:13:34.158Z,6.88
2022-09-04T02:16:42.679Z,6.88
2022-09-04T02:19:31.600Z,7.57
2022-09-04T02:22:21.638Z,9.25
2022-09-04T02:25:04.910Z,8.00
2022-09-04T02:27:38.210Z,8.15
2022-09-04T02:30:11.836Z,9.35
2022-09-04T02:33:01.534Z,8.10
2022-09-04T02:36:06.873Z,8.68
2022-09-04T02:38:50.754Z,9.02
2022-09-04T02:41:41.958Z,8.60
2022-09-04T02:44:15.342Z,9.38
2022-09-04T02:47:21.001Z,8.75
2022-09-04T02:49:55.623Z,8.55
2022-09-04T02:52:31.067Z,8.60
2022-09-04T02:55:16.026Z,8.07
2022-09-04T02:57:56.209Z,8.55
2022-09-04T03:00:38.098Z,8.20
2022-09-04T03:03:15.215Z,9.27
2022-09-04T03:06:06.940Z,8.57
2022-09-04T03:08:42.636Z,9.02
2022-09-04T03:11:43.227Z,9.43
2022-09-04T03:14:34.708Z,8.40
2022-09-04T03:17:21.227Z,8.60
2022-09-04T03:20:00.354Z,8.57
2022-09-04T03:22:40.199Z,7.65
2022-09-04T03:25:33.898Z,7.75
2022-09-04T03:28:02.244Z,7.70
2022-09-04T03:30:33.974Z,7.43
2022-09-04T03:36:04.950Z,6.72
2022-09-04T03:39:04.287Z,7.18
2022-09-04T03:41:52.208Z,7.10
2022-09-04T03:44:45.319Z,8.10
2022-09-04T03:47:55.684Z,8.07
2022-09-04T03:50:52.267Z,8.85
2022-09-04T03:53:39.481Z,7.43
2022-09-04T03:56:28.841Z,8.40
2022-09-04T03:59:09.969Z,8.02
2022-09-04T04:02:28.406Z,7.82
2022-09-04T04:05:37.475Z,8.00
2022-09-04T04:08:28.102Z,8.05
2022-09-04T04:11:07.042Z,7.38
2022-09-04T04:14:15.669Z,7.28
2022-09-04T04:17:02.485Z,7.22
2022-09-04T04:20:07.486Z,7.32
2022-09-04T04:22:51.315Z,5.70
2022-09-04T04:25:36.232Z,6.47
2022-09-04T04:28:24.393Z,6.20
2022-09-04T04:30:55.801Z,5.75
2022-09-04T04:33:50.772Z,6.57
2022-09-04T04:36:54.183Z,6.50
2022-09-04T04:39:40.716Z,7.15
2022-09-04T04:42:16.166Z,7.43
2022-09-04T04:45:17.080Z,6.07
2022-09-04T04:48:09.845Z,6.05
2022-09-04T04:50:59.914Z,6.57
2022-09-04T04:53:45.201Z,6.83
2022-09-04T04:56:22.334Z,6.00
2022-09-04T04:59:27.040Z,5.57
2022-09-04T05:02:31.640Z,6.60
2022-09-04T05:05:34.869Z,5.97
2022-09-04T05:08:08.566Z,4.82
2022-09-04T05:10:47.360Z,6.03
2022-09-04T05:13:35.015Z,5.68
2022-09-04T05:16:25.030Z,5.85
2022-09-04T05:19:05.835Z,5.43
2022-09-04T05:22:01.581Z,5.43
2022-09-04T05:24:54.142Z,5.50
2022-09-04T05:27:23.676Z,5.70
2022-09-04T05:30:11.287Z,6.55
2022-09-04T05:32:46.679Z,6.25
2022-09-04T05:35:31.911Z,6.63
2022-09-04T05:38:16.128Z,6.15
2022-09-04T05:41:06.857Z,6.30
2022-09-04T05:43:49.232Z,5.93
2022-09-04T05:46:55.872Z,5.93
2022-09-04T05:49:55.032Z,5.55
2022-09-04T05:52:33.714Z,5.55
2022-09-04T05:55:24.702Z,5.28
2022-09-04T05:58:10.903Z,4.50
2022-09-04T06:01:05.520Z,5.18
2022-09-04T06:03:49.124Z,5.03
2022-09-04T06:06:37.838Z,5.90
2022-09-04T06:09:36.951Z,6.13
2022-09-04T06:12:26.768Z,5.75
2022-09-04T06:17:42.179Z,5.40
2022-09-04T06:20:42.675Z,5.90
2022-09-04T06:23:35.465Z,6.00
2022-09-04T06:26:27.372Z,5.82
2022-09-04T06:28:54.973Z,5.75
2022-09-04T06:31:24.493Z,5.85
2022-09-04T06:34:20.280Z,5.18
2022-09-04T06:37:10.817Z,6.43
2022-09-04T06:39:51.189Z,5.40
2022-09-04T06:42:37.887Z,7.20
2022-09-04T06:45:07.491Z,6.78
2022-09-04T06:47:58.160Z,7.30
2022-09-04T06:50:34.248Z,6.38
2022-09-04T06:53:28.865Z,6.25
2022-09-04T06:56:11.272Z,6.28
2022-09-04T06:59:01.329Z,6.80
2022-09-04T07:01:47.256Z,7.68
2022-09-04T07:04:31.862Z,7.28
2022-09-04T07:07:24.707Z,7.65
2022-09-04T07:10:09.834Z,6.93
2022-09-04T07:13:21.239Z,7.43
2022-09-04T07:15:49.091Z,7.30
2022-09-04T07:18:35.676Z,6.93
2022-09-04T07:21:19.382Z,6.53
2022-09-04T07:24:00.967Z,5.78
2022-09-04T07:26:47.443Z,5.72
2022-09-04T07:29:25.784Z,6.47
2022-09-04T07:32:20.578Z,7.13
2022-09-04T07:35:06.266Z,7.13
2022-09-04T07:37:52.909Z,7.78
2022-09-04T07:40:27.978Z,8.05
2022-09-04T07:43:11.150Z,7.28
2022-09-04T07:45:50.730Z,6.22
2022-09-04T07:48:29.130Z,6.25
2022-09-04T07:51:11.852Z,7.00
2022-09-04T07:53:45.698Z,6.80
2022-09-04T07:56:42.723Z,6.70
2022-09-04T07:59:33.549Z,5.85
2022-09-04T08:02:14.375Z,5.68
2022-09-04T08:05:09.033Z,5.60
2022-09-04T08:07:40.273Z,5.25
2022-09-04T08:10:23.112Z,6.00
2022-09-04T08:13:42.287Z,6.07
2022-09-04T08:16:25.422Z,6.70
2022-09-04T08:19:34.721Z,7.22
2022-09-04T08:22:03.926Z,8.27
2022-09-04T08:24:46.449Z,7.75
2022-09-04T08:27:44.215Z,7.95
2022-09-04T08:30:14.997Z,7.72
2022-09-04T08:33:18.611Z,7.75
2022-09-04T08:35:45.471Z,7.53
2022-09-04T08:38:25.525Z,8.90
2022-09-04T08:41:18.124Z,7.65
2022-09-04T08:44:03.559Z,7.82
2022-09-04T08:46:49.720Z,9.40
2022-09-04T08:49:39.819Z,9.35
2022-09-04T08:52:30.498Z,8.38
2022-09-04T08:55:18.712Z,8.70
2022-09-04T08:57:55.054Z,7.82
2022-09-04T09:00:27.053Z,8.27
2022-09-04T09:03:14.591Z,8.90
2022-09-04T09:06:06.912Z,8.85
2022-09-04T09:09:11.227Z,8.57
2022-09-04T09:12:00.132Z,8.45
2022-09-04T09:14:38.372Z,9.82
2022-09-04T09:17:14.286Z,9.05
2022-09-04T09:19:46.738Z,8.43
2022-09-04T09:22:25.672Z,8.65
2022-09-04T09:25:16.625Z,8.02
2022-09-04T09:28:15.595Z,8.13
2022-09-04T09:31:14.890Z,8.15
2022-09-04T09:34:14.358Z,7.97
2022-09-04T09:37:08.452Z,8.75
2022-09-04T09:39:39.067Z,8.93
2022-09-04T09:42:42.130Z,9.90
2022-09-04T09:45:25.536Z,8.63
2022-09-04T09:48:32.181Z,8.25
2022-09-04T09:51:56.433Z,7.82
2022-09-04T09:54:59.645Z,8.82
2022-09-04T09:58:05.249Z,8.23
2022-09-04T10:00:57.778Z,7.85
2022-09-04T10:03:48.828Z,7.93
2022-09-04T10:06:41.784Z,8.55
2022-09-04T10:09:27.618Z,7.47
2022-09-04T10:12:19.874Z,6.25
2022-09-04T10:15:10.127Z,4.80
2022-09-04T10:18:15.324Z,5.00
2022-09-04T10:21:00.798Z,5.10
2022-09-04T10:23:52.679Z,5.47
2022-09-04T10:26:46.719Z,3.78
2022-09-04T10:29:33.478Z,3.92
2022-09-04T10:32:34.354Z,3.85
2022-09-04T10:35:10.605Z,2.90
2022-09-04T10:37:57.238Z,3.00
2022-09-04T10:40:43.136Z,3.00
2022-09-04T10:43:21.264Z,3.60
2022-09-04T10:46:22.700Z,3.90
2022-09-04T10:49:00.179Z,3.90
2022-09-04T10:51:45.685Z,3.42
2022-09-04T10:54:31.211Z,3.25
2022-09-04T10:57:04.625Z,3.60
2022-09-04T10:59:39.622Z,2.58
2022-09-04T11:02:39.516Z,2.60
2022-09-04T11:05:44.366Z,2.28
2022-09-04T11:08:14.949Z,2.25
2022-09-04T11:11:33.397Z,2.22
2022-09-04T11:14:22.574Z,2.22
2022-09-04T11:17:07.404Z,1.60
2022-09-04T11:20:18.386Z,2.00
2022-09-04T11:23:24.226Z,2.05
2022-09-04T11:26:09.980Z,1.75
2022-09-04T11:29:03.401Z,2.42
2022-09-04T11:31:36.430Z,2.00
2022-09-04T11:34:39.335Z,1.80
2022-09-04T11:37:45.124Z,1.67
2022-09-04T11:40:49.930Z,2.08
2022-09-04T11:43:37.436Z,1.90
2022-09-04T11:46:18.551Z,1.63
2022-09-04T11:49:07.950Z,2.33
2022-09-04T11:51:50.656Z,1.85
2022-09-04T11:54:38.833Z,1.60
2022-09-04T11:57:30.471Z,1.70
2022-09-04T12:00:10.529Z,1.52
2022-09-04T12:03:15.463Z,1.60
2022-09-04T12:06:10.146Z,1.60
2022-09-04T12:09:01.742Z,1.80
2022-09-04T12:11:57.490Z,1.60
2022-09-04T12:14:48.978Z,1.60
2022-09-04T12:17:31.299Z,1.52
2022-09-04T12:20:36.103Z,1.35
2022-09-04T12:23:42.088Z,1.67
2022-09-04T12:26:35.953Z,1.60
2022-09-04T12:29:14.857Z,1.50
2022-09-04T12:32:25.288Z,1.40
2022-09-04T12:35:02.052Z,1.40
2022-09-04T12:38:02.395Z,1.40
2022-09-04T12:40:57.316Z,1.70
2022-09-04T12:43:42.990Z,1.33
2022-09-04T12:46:35.613Z,1.73
2022-09-04T12:49:11.132Z,1.80
2022-09-04T12:51:49.223Z,1.60
2022-09-04T12:54:50.217Z,1.20
2022-09-04T12:58:00.700Z,1.50
2022-09-04T13:00:48.424Z,1.10
2022-09-04T13:03:37.520Z,1.13
2022-09-04T13:06:24.214Z,1.52
2022-09-04T13:09:12.619Z,1.35
2022-09-04T13:14:37.807Z,1.50
2022-09-04T13:17:33.726Z,1.70
2022-09-04T13:20:45.943Z,1.77
2022-09-04T13:23:23.197Z,1.60
2022-09-04T13:26:15.058Z,1.90
2022-09-04T13:29:15.946Z,1.60
2022-09-04T13:32:21.709Z,1.58
2022-09-04T13:35:26.203Z,1.58
2022-09-04T13:38:12.572Z,1.45
2022-09-04T13:41:11.492Z,1.75
2022-09-04T13:44:04.793Z,1.70
2022-09-04T13:46:37.364Z,1.70
2022-09-04T13:49:11.638Z,1.60
2022-09-04T13:51:45.554Z,1.30
2022-09-04T13:54:18.809Z,1.55
2022-09-04T13:56:59.028Z,1.73
2022-09-04T13:59:32.601Z,1.50
2022-09-04T14:02:09.512Z,1.98
2022-09-04T14:04:40.731Z,2.00
2022-09-04T14:07:21.001Z,2.28
2022-09-04T14:09:50.337Z,2.90
2022-09-04T14:15:14.064Z,1.60
2022-09-04T14:18:13.941Z,1.70
2022-09-04T14:21:01.108Z,1.40
2022-09-04T14:23:41.271Z,1.60
2022-09-04T14:26:27.685Z,1.65
2022-09-04T14:29:05.462Z,1.50
2022-09-04T14:31:48.933Z,1.35
2022-09-04T14:35:10.579Z,1.80
2022-09-04T14:37:48.581Z,1.70
2022-09-04T14:40:26.763Z,1.67
2022-09-04T14:43:23.330Z,1.60
2022-09-04T14:46:09.462Z,1.90
2022-09-04T14:48:42.526Z,1.73
2022-09-04T14:51:34.110Z,1.88
2022-09-04T14:54:01.888Z,1.48
2022-09-04T14:56:35.807Z,1.77
2022-09-04T14:59:18.112Z,1.75
2022-09-04T15:02:11.579Z,1.60
2022-09-04T15:04:46.576Z,2.00
2022-09-04T15:07:34.684Z,1.73
2022-09-04T15:10:28.497Z,1.70
2022-09-04T15:13:22.997Z,1.80
2022-09-04T15:16:11.148Z,2.00
2022-09-04T15:18:57.436Z,2.15
2022-09-04T15:21:40.450Z,2.38
2022-09-04T15:24:26.784Z,1.50
2022-09-04T15:27:10.147Z,1.70
2022-09-04T15:29:46.211Z,1.60
2022-09-04T15:32:21.130Z,1.63
2022-09-04T15:34:52.199Z,1.40
2022-09-04T15:37:27.555Z,1.38
2022-09-04T15:40:22.260Z,1.48
2022-09-04T15:43:07.867Z,1.67
2022-09-04T15:45:59.128Z,1.75
2022-09-04T15:48:33.317Z,1.45
2022-09-04T15:51:38.032Z,1.80
2022-09-04T15:54:11.727Z,1.60
2022-09-04T15:56:45.810Z,1.60
2022-09-04T15:59:18.076Z,1.60
2022-09-04T16:01:55.377Z,1.55
2022-09-04T16:04:51.496Z,1.50
2022-09-04T16:07:34.687Z,1.40
2022-09-04T16:10:24.610Z,1.45
2022-09-04T16:15:32.007Z,1.52
2022-09-04T16:18:02.456Z,1.70
2022-09-04T16:20:34.135Z,1.60
2022-09-04T16:23:10.644Z,1.40
2022-09-04T16:25:50.381Z,1.60
2022-09-04T16:28:43.655Z,1.48
2022-09-04T16:31:14.227Z,1.58
2022-09-04T16:33:43.922Z,1.50
2022-09-04T16:36:22.754Z,1.50
2022-09-04T16:39:05.918Z,1.58
2022-09-04T16:41:47.072Z,1.50
2022-09-04T16:44:26.484Z,1.77
2022-09-04T16:47:05.931Z,1.67
2022-09-04T16:49:51.327Z,1.60
2022-09-04T16:52:21.211Z,1.50
2022-09-04T16:54:54.883Z,1.40
2022-09-04T16:57:34.078Z,1.60
2022-09-04T17:00:08.115Z,1.50
2022-09-04T17:02:55.604Z,1.58
2022-09-04T17:05:35.917Z,1.70
2022-09-04T17:08:05.068Z,1.55
2022-09-04T17:11:07.206Z,1.40
2022-09-04T17:14:08.908Z,1.50
2022-09-04T17:16:52.537Z,1.60
2022-09-04T17:19:20.127Z,1.38
2022-09-04T17:28:55.987Z,1.37
2022-09-04T17:28:57.472Z,1.52
2022-09-04T17:29:12.647Z,1.42
2022-09-04T17:31:29.133Z,1.50
2022-09-04T17:37:46.160Z,1.50
2022-09-04T17:40:33.703Z,1.50
2022-09-04T17:40:52.532Z,1.50
2022-09-04T17:43:15.659Z,1.50
2022-09-04T17:46:02.221Z,2.05
2022-09-04T17:48:33.942Z,1.35
2022-09-04T17:51:03.741Z,2.13
2022-09-04T17:53:34.339Z,2.10
2022-09-04T17:56:17.429Z,1.98
2022-09-04T17:59:05.291Z,1.80
2022-09-04T18:01:50.537Z,1.70
2022-09-04T18:04:31.238Z,1.80
2022-09-04T18:07:22.016Z,2.10
2022-09-04T18:10:12.303Z,1.88
2022-09-04T18:13:09.039Z,1.65
2022-09-04T18:16:33.160Z,2.17
2022-09-04T18:19:15.928Z,1.40
2022-09-04T18:22:09.657Z,2.10
2022-09-04T18:24:50.709Z,1.67
2022-09-04T18:27:30.480Z,1.65
2022-09-04T18:33:32.405Z,2.00
2022-09-04T18:37:09.779Z,1.85
2022-09-04T18:37:22.853Z,1.77
2022-09-04T18:39:23.803Z,1.58
2022-09-04T18:50:24.132Z,2.17
2022-09-04T18:50:30.301Z,1.40
2022-09-04T18:50:43.933Z,1.90
2022-09-04T18:51:15.123Z,1.90
2022-09-04T18:53:57.024Z,2.28
2022-09-04T18:56:29.813Z,2.00
2022-09-04T18:59:14.856Z,1.90
2022-09-04T19:02:10.549Z,2.40
2022-09-04T19:04:51.579Z,2.42
2022-09-04T19:07:38.054Z,2.30
2022-09-04T19:10:16.266Z,2.28
2022-09-04T19:12:50.132Z,2.05
2022-09-04T19:15:57.241Z,2.40
2022-09-04T19:18:26.737Z,1.80
2022-09-04T19:21:13.410Z,1.73
2022-09-04T19:23:53.163Z,2.08
2022-09-04T19:26:41.414Z,2.00
2022-09-04T19:29:29.695Z,2.83
2022-09-04T19:32:11.157Z,2.38
2022-09-04T19:34:47.745Z,2.30
2022-09-04T19:38:13.669Z,2.60
2022-09-04T19:46:05.858Z,2.75
2022-09-04T19:46:19.487Z,3.10
2022-09-04T19:46:30.432Z,3.08
2022-09-04T19:50:16.936Z,3.05
2022-09-04T19:53:30.394Z,3.08
2022-09-04T19:55:25.284Z,2.90
2022-09-04T19:58:13.530Z,2.40
2022-09-04T20:00:58.161Z,2.40
2022-09-04T20:03:33.362Z,3.35
2022-09-04T20:06:22.716Z,2.85
2022-09-04T20:09:03.231Z,2.65
2022-09-04T20:12:11.819Z,2.55
2022-09-04T20:14:51.489Z,2.70
2022-09-04T20:17:40.426Z,2.57
2022-09-04T20:20:22.538Z,2.90
2022-09-04T20:23:33.818Z,2.50
2022-09-04T20:26:13.588Z,3.00
2022-09-04T20:28:58.679Z,2.75
2022-09-04T20:31:36.254Z,2.58
2022-09-04T20:34:13.292Z,3.03
2022-09-04T20:36:48.855Z,3.58
2022-09-04T20:39:41.776Z,2.85
2022-09-04T20:42:23.298Z,3.33
2022-09-04T20:47:39.631Z,2.55
2022-09-04T20:52:50.479Z,2.90
2022-09-04T20:52:50.938Z,3.00
2022-09-04T20:54:13.584Z,3.47
2022-09-04T21:00:32.794Z,3.00
2022-09-04T21:03:24.233Z,3.20
2022-09-04T21:03:32.644Z,2.92
2022-09-04T21:06:41.979Z,3.60
2022-09-04T21:09:18.341Z,3.22
2022-09-04T21:12:13.283Z,3.13
2022-09-04T21:14:48.186Z,2.95
2022-09-04T21:17:56.271Z,3.20
2022-09-04T21:21:12.127Z,3.08
2022-09-04T21:24:03.182Z,3.05
2022-09-04T21:27:08.136Z,3.17
2022-09-04T21:29:53.079Z,3.10
2022-09-04T21:32:37.272Z,2.88
2022-09-04T21:35:47.796Z,2.88
2022-09-04T21:38:33.379Z,3.20
2022-09-04T21:41:04.597Z,3.30
2022-09-04T21:43:44.338Z,3.08
2022-09-04T21:47:08.865Z,3.55
2022-09-04T21:49:55.581Z,3.17
2022-09-04T21:52:56.287Z,3.15
2022-09-04T21:58:52.467Z,3.70
2022-09-04T22:02:37.642Z,4.15
2022-09-04T22:02:37.797Z,3.97
2022-09-04T22:05:10.249Z,4.03
2022-09-04T22:12:13.063Z,4.82
2022-09-04T22:13:42.341Z,3.78
2022-09-04T22:14:04.208Z,4.22
2022-09-04T22:16:43.666Z,4.00
2022-09-04T22:22:08.588Z,3.53
2022-09-04T22:25:01.994Z,3.58
2022-09-04T22:28:08.419Z,4.55
2022-09-04T22:30:50.305Z,4.35
2022-09-04T22:34:16.728Z,3.88
2022-09-04T22:37:21.539Z,3.70
2022-09-04T22:40:23.576Z,3.88
2022-09-04T22:43:24.882Z,3.80
2022-09-04T22:46:32.868Z,4.60
2022-09-04T22:49:16.421Z,4.57
2022-09-04T22:52:10.824Z,4.88
2022-09-04T22:54:55.827Z,4.70
2022-09-04T22:57:34.226Z,4.65
2022-09-04T23:00:20.535Z,4.68
2022-09-04T23:03:09.651Z,4.32
2022-09-04T23:05:50.867Z,4.28
2022-09-04T23:13:46.902Z,5.43
2022-09-04T23:14:02.221Z,5.53
2022-09-04T23:15:08.654Z,4.95
2022-09-04T23:19:36.082Z,4.25
2022-09-04T23:26:33.593Z,4.15
2022-09-04T23:26:47.561Z,4.20
2022-09-04T23:27:12.231Z,3.92
2022-09-04T23:30:26.994Z,5.47
2022-09-04T23:33:28.485Z,4.68
2022-09-04T23:36:33.935Z,3.60
2022-09-04T23:39:34.271Z,4.03
2022-09-04T23:42:24.532Z,4.05
2022-09-04T23:45:16.427Z,4.10
2022-09-04T23:47:59.940Z,4.70
2022-09-04T23:50:50.490Z,4.82
2022-09-04T23:53:35.542Z,4.57
2022-09-04T23:56:18.241Z,4.97
2022-09-04T23:59:15.737Z,5.40
